Terminal Aerodrome Forecast
Issued by NWS Billings, MT

Home | Current Version | Previous Version | Text Only | Print | Product List | Glossary On
Versions: 1 2 3 4 5 6 7 8 9 10 11 12 13 14 15 16 17 18 19 20
000
FTUS45 KBYZ 101501 AAA
TAFBIL
TAF AMD
KBIL 101501Z 1015/1112 00000KT 1SM -SN BR VV011
     FM101700 VRB06KT 5SM -SN BR BKN025
     FM110200 32008KT P6SM BKN060=

USA.gov is the U.S. government's official web portal to all federal, state and local government web resources and services.